• Join FlightAware (Why Join?)
  • Login
  • US Flag 
04:03AM EDT


 

Airport Tracker/Info


-or-


 

Live Flight TrackerFlight Track Log ✈ DAL268 ✈ 23-Jun-2013 ✈ KJFK - LLBG / TLV

Flight Track Log - Related Links

Times and Time Zones

All times are in EDT time to prevent confusion due to time zone crossing. See the DAL268 flight status page for this flight to view local times or setup timezone preferences in your user account.

Time Position Orientation Groundspeed Altitude Reporting Facility
EDT Latitude Longitude Course Direction KTS MPH feet Rate Location/Type
12:11AM 40.6310 -73.7780 120° Southeast  Level FlightAware
12:12AM 40.6310 -73.7770 90° East 2 2  Level FlightAware
12:14AM 40.6310 -73.7760 90° East 2 2  Level FlightAware
12:17AM 40.5833 -73.3123 90° East  Level FlightAware Approximate
12:17AM 40.6300 -73.7760 90° East 2 2  Level FlightAware
12:20AM 40.5833 -73.3343 90° East  Level FlightAware Approximate
12:20AM 40.6290 -73.7760 90° East 2 2  Level FlightAware
12:23AM 40.5833 -73.3437 90° East  Level FlightAware Approximate
12:24AM 40.5603 -73.1629 97° East  Level FlightAware Approximate
12:25AM 40.5600 -72.9800 57° Northeast  Level FlightAware Approximate
12:26AM 40.5991 -72.8027 66° East  Level FlightAware Approximate
12:26AM 40.6280 -73.7760 66° East 2 2  Level FlightAware
12:27AM 40.6280 -73.7770 270° West 2 2 60 Level FlightAware
12:28AM 40.6270 -73.7760 143° Southeast 18 21 60 Level FlightAware
12:29AM 40.6260 -73.7770 217° Southwest 28 32 60 Level FlightAware
12:29AM 40.6250 -73.7760 143° Southeast 21 24 60 Level FlightAware
12:30AM 40.6230 -73.7740 143° Southeast 21 24 60 Level FlightAware
12:31AM 40.6230 -73.7730 90° East 23 26 60 Level FlightAware
12:31AM 40.6220 -73.7710 123° Southeast 16 18 120 Level FlightAware
12:32AM 40.6210 -73.7710 180° South 2 2 120 Level FlightAware
12:34AM 40.5932 -73.4229 108° East  Level FlightAware Approximate
12:34AM 40.6200 -73.7700 108° East 15 17  Level FlightAware
12:35AM 40.6190 -73.7700 180° South 24 28 180 Level FlightAware
12:35AM 40.6180 -73.7710 217° Southwest 22 25 240 Level FlightAware
12:36AM 40.6180 -73.7720 270° West 2 2 300 Level FlightAware
12:37AM 40.6190 -73.7730 323° Northwest 43 49 420 Level FlightAware
12:37AM 40.6240 -73.7850 299° West 140 161 780 Level FlightAware
12:38AM 40.6300 -73.7980 301° West 175 201 1,200 Level FlightAware
12:38AM 40.6410 -73.8290 295° West 197 227 900 1,980 Climbing FlightAware
12:39AM 40.6320 -73.8570 247° West 204 235 1,900 2,040 Climbing FlightAware
12:39AM 40.6220 -73.8650 211° Southwest 213 245 2,200 1,740 Climbing FlightAware
12:39AM 40.6040 -73.8710 194° South 221 254 2,800 1,740 Climbing FlightAware
12:39AM 40.5910 -73.8660 164° South 227 261 3,100 1,500 Climbing FlightAware
12:39AM 40.5800 -73.8530 138° Southeast 237 273 3,500 1,320 Climbing FlightAware
12:40AM 40.5730 -73.8370 120° Southeast 250 288 3,700 1,020 Climbing FlightAware
12:40AM 40.5690 -73.8130 102° East 261 300 4,000 1,320 Climbing FlightAware
12:40AM 40.5700 -73.7660 88° East 280 322 4,700 1,560 Climbing FlightAware
12:41AM 40.5690 -73.7170 92° East 297 342 5,500 1,860 Climbing FlightAware
12:41AM 40.5693 -73.6981 89° East 300 345 5,900 2,640 Climbing FlightAware ADS-B
12:41AM 40.5691 -73.6703 91° East 303 349 6,600 2,580 Climbing FlightAware ADS-B
12:42AM 40.5686 -73.6398 91° East 305 351 7,300 2,400 Climbing FlightAware ADS-B
12:42AM 40.5677 -73.6117 92° East 307 353 7,900 2,460 Climbing FlightAware ADS-B
12:42AM 40.5666 -73.5814 93° East 311 358 8,600 2,460 Climbing FlightAware ADS-B
12:42AM 40.5653 -73.5523 93° East 314 361 9,200 2,280 Climbing FlightAware ADS-B
12:43AM 40.5639 -73.5225 94° East 317 365 9,800 1,680 Climbing FlightAware ADS-B
12:43AM 40.5613 -73.4625 93° East 342 394 10,500 1,200 Climbing FlightAware ADS-B
12:44AM 40.5589 -73.3967 93° East 373 429 11,000 900 Climbing FlightAware ADS-B
12:44AM 40.5567 -73.3254 92° East 403 464 11,400 1,020 Climbing FlightAware ADS-B
12:44AM 40.5553 -73.2721 92° East 418 481 11,900 1,680 Climbing FlightAware ADS-B
12:45AM 40.5582 -73.2272 85° East 426 490 12,500 2,160 Climbing FlightAware ADS-B
12:45AM 40.5658 -73.1954 73° East 428 493 13,000 2,160 Climbing FlightAware ADS-B
12:46AM 40.5968 -73.1250 60° Northeast 435 501 14,100 1,980 Climbing FlightAware ADS-B
12:46AM 40.6301 -73.0463 61° Northeast 443 510 15,200 1,920 Climbing FlightAware ADS-B
12:47AM 40.6612 -72.9755 60° Northeast 451 519 16,200 1,860 Climbing FlightAware ADS-B
12:47AM 40.6929 -72.9018 60° Northeast 459 528 17,100 1,860 Climbing FlightAware ADS-B
12:48AM 40.7253 -72.8251 61° Northeast 464 534 18,100 1,800 Climbing FlightAware ADS-B
12:48AM 40.7570 -72.7480 61° Northeast 470 541 19,000 1,680 Climbing FlightAware ADS-B
12:49AM 40.7900 -72.6672 62° Northeast 476 548 19,900 1,620 Climbing FlightAware ADS-B
12:49AM 40.8245 -72.5829 62° Northeast 483 556 20,800 1,560 Climbing FlightAware ADS-B
12:50AM 40.8588 -72.4988 62° Northeast 488 562 21,600 1,500 Climbing FlightAware ADS-B
12:50AM 40.8919 -72.4176 62° Northeast 495 570 22,400 1,500 Climbing FlightAware ADS-B
12:51AM 40.9257 -72.3348 62° Northeast 500 575 23,200 1,440 Climbing FlightAware ADS-B
12:51AM 40.9609 -72.2490 61° Northeast 504 580 23,900 1,260 Climbing FlightAware ADS-B
12:52AM 40.9970 -72.1590 62° Northeast 509 586 24,600 780 Climbing FlightAware
12:52AM 41.0330 -72.0730 61° Northeast 509 586 24,800 1,260 Climbing FlightAware
12:53AM 41.0717 -71.9763 62° Northeast 515 593 26,000 1,320 Climbing FlightAware ADS-B
12:55AM 41.1230 -71.8520 61° Northeast 27,900 1,080 Climbing FlightAware
12:55AM 41.2300 -71.5860 62° Northeast 526 605 28,700 1,320 Climbing FlightAware
12:56AM 41.2830 -71.4530 62° Northeast 526 605 29,800 1,380 Climbing FlightAware
12:57AM 41.3320 -71.3300 62° Northeast 524 603 30,700 1,260 Climbing FlightAware
12:57AM 41.3820 -71.2030 62° Northeast 523 602 31,600 1,140 Climbing FlightAware
12:58AM 41.4270 -71.0900 62° Northeast 522 601 32,300 960 Climbing FlightAware
12:59AM 41.4710 -70.9760 63° Northeast 522 601 32,900 480 Climbing FlightAware
12:59AM 41.5170 -70.8580 62° Northeast 522 601 33,000 60 Climbing FlightAware
01:00AM 41.5640 -70.7390 62° Northeast 522 601 33,000  Level FlightAware
01:01AM 41.6100 -70.6210 62° Northeast 522 601 33,000  Level FlightAware
01:02AM 41.6530 -70.5120 62° Northeast 523 602 33,000  Level FlightAware
01:02AM 41.6930 -70.4100 62° Northeast 523 602 33,000  Level FlightAware
01:03AM 41.7640 -70.2200 63° Northeast 520 598 33,000  Level FlightAware
01:04AM 41.8150 -70.0870 63° Northeast 520 598 33,000  Level FlightAware
01:05AM 41.8740 -69.9310 63° Northeast 519 597 33,000  Level FlightAware
01:06AM 41.9150 -69.8220 63° Northeast 517 595 33,000  Level FlightAware
01:06AM 41.9690 -69.6790 63° Northeast 515 593 33,000  Level FlightAware
01:07AM 42.0110 -69.5650 64° Northeast 514 592 33,000  Level FlightAware
01:08AM 42.0560 -69.4460 63° Northeast 517 595 33,000  Level FlightAware
01:08AM 42.1020 -69.3210 64° Northeast 517 595 33,000  Level FlightAware
01:09AM 42.1500 -69.1910 63° Northeast 514 592 33,000  Level FlightAware
01:10AM 42.1930 -69.0750 63° Northeast 517 595 33,000  Level FlightAware
01:10AM 42.2350 -68.9600 64° Northeast 517 595 33,000  Level FlightAware
01:11AM 42.2930 -68.8010 64° Northeast 518 596 33,000  Level FlightAware
01:12AM 42.3360 -68.6830 64° Northeast 520 598 33,000  Level FlightAware
01:13AM 42.3790 -68.5650 64° Northeast 521 600 33,000  Level FlightAware
01:13AM 42.4260 -68.4340 64° Northeast 521 600 33,000  Level FlightAware
01:14AM 42.4680 -68.3170 64° Northeast 521 600 33,000  Level FlightAware
01:15AM 42.5130 -68.1900 64° Northeast 519 597 33,000  Level FlightAware
01:16AM 42.5530 -68.0790 64° Northeast 518 596 33,000  Level FlightAware
01:17AM 42.6458 -67.8636 64° Northeast 511 588 33,000  Level Boston Center
01:22AM 42.9780 -66.8540 64° Northeast 533 613 33,000  Level FlightAware
01:23AM 43.0170 -66.7380 65° Northeast 534 615 33,000  Level FlightAware
01:24AM 43.0660 -66.5950 65° Northeast 537 618 33,000  Level FlightAware
01:24AM 43.1080 -66.4690 65° Northeast 537 618 33,000  Level FlightAware
01:25AM 43.1490 -66.3450 66° East 536 617 33,000  Level FlightAware
01:26AM 43.1950 -66.2090 65° Northeast 533 613 33,000  Level FlightAware
01:27AM 43.2360 -66.0850 66° East 534 615 33,000  Level FlightAware
01:27AM 43.2910 -65.9510 61° Northeast 524 603 33,000  Level FlightAware
01:28AM 43.3430 -65.8380 58° Northeast 525 604 33,000  Level FlightAware
01:29AM 43.3960 -65.7240 57° Northeast 526 605 33,000  Level FlightAware
01:29AM 43.4540 -65.5970 58° Northeast 523 602 33,000  Level FlightAware
01:30AM 43.5060 -65.4820 58° Northeast 521 600 33,000  Level FlightAware
01:31AM 43.5660 -65.3510 58° Northeast 521 600 33,000  Level FlightAware
01:31AM 43.6170 -65.2380 58° Northeast 522 601 33,000  Level FlightAware
01:32AM 43.6690 -65.1230 58° Northeast 523 602 33,000  Level FlightAware
01:33AM 43.7280 -64.9950 57° Northeast 526 605 33,000  Level FlightAware
01:34AM 43.7820 -64.8780 57° Northeast 529 609 33,000  Level FlightAware
01:34AM 43.8360 -64.7600 58° Northeast 529 609 33,000  Level FlightAware
01:35AM 43.8880 -64.6270 61° Northeast 534 615 33,000  Level FlightAware
01:36AM 43.9300 -64.5160 62° Northeast 534 615 33,000  Level FlightAware
01:37AM 43.9960 -64.3440 62° Northeast 533 613 33,000  Level FlightAware
01:37AM 44.0460 -64.2190 61° Northeast 530 610 33,000  Level FlightAware
01:38AM 44.0960 -64.0910 61° Northeast 530 610 33,000 180 Level FlightAware
01:39AM 44.1350 -63.9790 64° Northeast 536 617 33,300 660 Climbing FlightAware
01:39AM 44.1710 -63.8180 73° East 544 626 34,000 420 Climbing FlightAware
01:40AM 44.2040 -63.6830 71° East 542 624 34,000  Level FlightAware
01:41AM 44.2420 -63.5470 69° East 543 625 34,000  Level FlightAware
01:42AM 44.2970 -63.3490 69° East 542 624 34,000  Level FlightAware
01:42AM 44.3330 -63.2170 69° East 541 623 34,000  Level FlightAware
01:43AM 44.3650 -63.1010 69° East 540 621 34,000  Level FlightAware
01:44AM 44.4080 -62.9440 69° East 537 618 34,000  Level FlightAware
01:45AM 44.4440 -62.8110 69° East 535 616 34,000  Level FlightAware
01:45AM 44.4730 -62.7040 69° East 532 612 34,000  Level FlightAware
01:46AM 44.5050 -62.5890 69° East 532 612 34,000  Level FlightAware
01:47AM 44.5400 -62.4610 69° East 532 612 34,000  Level FlightAware
01:47AM 44.5670 -62.3620 69° East 532 612 34,000  Level FlightAware
01:48AM 44.6030 -62.2300 69° East 532 612 34,000  Level FlightAware
01:49AM 44.6300 -62.1310 69° East 532 612 34,000  Level FlightAware
01:49AM 44.6650 -62.0050 69° East 532 612 34,000  Level FlightAware
01:50AM 44.7120 -61.8320 69° East 532 612 34,000  Level FlightAware
01:51AM 44.7400 -61.7300 69° East 532 612 34,000  Level FlightAware
01:52AM 44.7840 -61.5650 69° East 532 612 34,000  Level FlightAware
01:53AM 44.8130 -61.4610 69° East 532 612 34,000  Level FlightAware
01:53AM 44.8950 -61.0860 73° East 535 616 34,000  Level FlightAware
01:54AM 44.9320 -60.9400 70° East 537 618 34,000  Level FlightAware
01:55AM 44.9630 -60.8120 71° East 539 620 34,000  Level FlightAware
01:55AM 44.9990 -60.6670 71° East 538 619 34,000  Level FlightAware
01:56AM 45.0360 -60.5200 70° East 537 618 34,000  Level FlightAware
01:57AM 45.0680 -60.3900 71° East 537 618 34,000  Level FlightAware
01:58AM 45.1010 -60.2510 71° East 536 617 34,000  Level FlightAware
01:58AM 45.1390 -60.0950 71° East 536 617 34,000  Level FlightAware
01:59AM 45.1690 -59.9690 71° East 537 618 34,000  Level FlightAware
02:00AM 45.2050 -59.8180 71° East 540 621 34,000  Level FlightAware
02:00AM 45.2370 -59.6850 71° East 537 618 34,000 -480 Level FlightAware
02:01AM 45.2710 -59.5380 72° East 532 612 33,400 -720 Descending FlightAware
02:02AM 45.3030 -59.4030 71° East 531 611 33,000 -300 Descending FlightAware
02:02AM 45.3330 -59.2670 73° East 533 613 33,000  Level FlightAware
02:03AM 45.3650 -59.1280 72° East 535 616 33,000  Level FlightAware
02:04AM 45.3980 -58.9780 73° East 539 620 33,000  Level FlightAware
02:05AM 45.4280 -58.8450 72° East 543 625 33,000  Level FlightAware
02:05AM 45.4620 -58.6940 72° East 547 629 33,000  Level FlightAware
02:06AM 45.4940 -58.5480 73° East 550 633 33,000  Level FlightAware
02:07AM 45.5250 -58.4130 72° East 550 633 33,000  Level FlightAware
02:07AM 45.5580 -58.2630 73° East 546 628 33,000  Level FlightAware
02:08AM 45.5900 -58.1170 73° East 546 628 33,000  Level FlightAware
02:09AM 45.6100 -58.0260 73° East 546 628 33,000  Level FlightAware
02:09AM 45.6370 -57.9030 73° East 546 628 33,000  Level FlightAware
02:10AM 45.6690 -57.7620 72° East 546 628 33,000  Level FlightAware
02:11AM 45.6940 -57.6540 72° East 546 628 33,000  Level FlightAware
02:11AM 45.7180 -57.5460 72° East 546 628 33,000  Level FlightAware
02:12AM 45.7500 -57.4060 72° East 546 628 33,000  Level FlightAware
02:13AM 45.7910 -57.1760 76° East 536 617 33,000  Level FlightAware
02:13AM 45.8150 -57.0630 73° East 536 617 33,000  Level FlightAware
02:14AM 45.8480 -56.8910 75° East 535 616 33,000  Level FlightAware
02:15AM 45.8780 -56.7400 74° East 534 615 33,000  Level FlightAware
02:16AM 45.9070 -56.5880 75° East 535 616 33,000  Level FlightAware
02:16AM 45.9450 -56.3970 74° East 537 618 33,000  Level FlightAware
02:17AM 45.9740 -56.2440 75° East 539 620 33,000  Level FlightAware
02:18AM 46.0010 -56.1040 74° East 541 623 33,000  Level FlightAware
02:19AM 46.0290 -55.9570 75° East 541 623 33,000  Level FlightAware
02:19AM 46.0550 -55.8200 75° East 543 625 33,000  Level FlightAware
02:20AM 46.0790 -55.6980 74° East 543 625 33,000  Level FlightAware
02:21AM 46.1090 -55.5300 75° East 545 627 33,000  Level FlightAware
02:21AM 46.1380 -55.3700 75° East 546 628 33,000  Level FlightAware
02:22AM 46.1560 -55.2700 75° East 546 628 33,000  Level FlightAware
02:23AM 46.1820 -55.1310 75° East 547 629 33,000  Level FlightAware
02:24AM 46.2160 -54.9390 76° East 547 629 33,000  Level FlightAware
02:24AM 46.2420 -54.7890 76° East 546 628 33,000  Level FlightAware
02:25AM 46.2710 -54.6240 76° East 546 628 33,000  Level FlightAware
02:26AM 46.2960 -54.4830 76° East 547 629 33,000  Level FlightAware
02:26AM 46.3230 -54.3270 76° East 548 631 33,000  Level FlightAware
02:27AM 46.3570 -54.1280 76° East 547 629 33,000  Level FlightAware
02:28AM 46.3830 -53.9780 76° East 547 629 33,000  Level FlightAware
02:29AM 46.4070 -53.8340 76° East 548 631 33,000  Level FlightAware
02:29AM 46.4340 -53.6730 76° East 548 631 33,000  Level FlightAware
02:30AM 46.4580 -53.5310 76° East 548 631 33,000  Level FlightAware
02:31AM 46.4840 -53.3710 77° East 548 631 33,000  Level FlightAware
02:31AM 46.5070 -53.2290 77° East 549 632 33,000  Level FlightAware
02:32AM 46.5330 -53.0690 77° East 550 633 33,000  Level FlightAware
02:33AM 46.5540 -52.9420 76° East 552 635 33,000  Level FlightAware
02:34AM 46.5820 -52.7680 77° East 554 638 33,000  Level FlightAware
02:34AM 46.6040 -52.6240 77° East 554 638 33,000  Level FlightAware
02:35AM 46.6290 -52.4620 77° East 554 638 33,000  Level FlightAware
02:36AM 46.6520 -52.3170 77° East 555 639 33,000  Level FlightAware
02:36AM 46.6740 -52.1720 77° East 554 638 33,000  Level FlightAware
02:37AM 46.6980 -52.0120 78° East 554 638 33,000  Level FlightAware
02:38AM 46.7200 -51.8650 78° East 554 638 33,000  Level FlightAware
02:38AM 46.7420 -51.7130 78° East 554 638 33,000  Level FlightAware
02:39AM 46.7700 -51.5220 78° East 553 636 33,000  Level FlightAware
02:40AM 46.7860 -51.4100 78° East 553 636 33,000  Level FlightAware
02:41AM 46.8070 -51.2680 78° East 553 636 33,000  Level FlightAware
02:41AM 46.8240 -51.1530 78° East 553 636 33,000  Level FlightAware
02:42AM 46.8460 -51.0000 78° East 553 636 33,000  Level FlightAware
02:43AM 46.8620 -50.8880 78° East 553 636 33,000  Level FlightAware
02:44AM 46.8910 -50.6890 78° East 553 636 33,000  Level FlightAware
02:44AM 46.9070 -50.5770 78° East 553 636 33,000  Level FlightAware
02:45AM 46.9250 -50.4590 77° East 553 636 33,000  Level FlightAware
02:46AM 46.9460 -50.3090 78° East 553 636 33,000  Level FlightAware
02:47AM 46.9630 -50.1940 78° East 553 636 33,000  Level FlightAware
02:47AM 46.9860 -50.0380 78° East 553 636 33,000  Level FlightAware
02:48AM 47.0030 -49.9160 78° East 553 636 33,000  Level FlightAware
02:49AM 47.0200 -49.8010 78° East 553 636 33,000  Level FlightAware
02:49AM 47.1167 -49.3667 78° East 540 621 33,000  Level Gander Center
02:50AM 47.0000 -50.0000 70° East 546 628 33,000  Level ETMS Enhanced Traffic Management System
02:50AM 47.1667 -49.1333 72° East 540 621 33,000  Level Gander Center
02:51AM 47.1833 -49.0667 70° East 550 633 33,000  Level Gander Center
02:52AM 47.2333 -48.8500 71° East 540 621 33,000  Level Gander Center
02:53AM 47.3000 -48.6333 66° East 550 633 33,000  Level Gander Center
02:53AM 47.3167 -48.5167 78° East 550 633 33,000  Level Gander Center
02:54AM 47.3667 -48.3000 71° East 550 633 33,000  Level Gander Center
02:55AM 47.4167 -48.0833 71° East 550 633 33,000  Level Gander Center
02:56AM 47.4500 -47.8667 77° East 550 633 33,000  Level Gander Center
02:57AM 47.5167 -47.6667 64° Northeast 560 644 33,000  Level Gander Center
02:58AM 47.5500 -47.4500 77° East 540 621 33,000  Level Gander Center
02:59AM 47.6000 -47.2667 68° East 550 633 33,000  Level Gander Center
03:01AM 47.6663 -46.9768 71° East  Level FlightAware Approximate
03:02AM 47.0000 -50.0000 70° East 546 628 33,000  Level ETMS Enhanced Traffic Management System
03:08AM 48.0648 -45.3146 73° East 546 628 33,000  Level FlightAware Transoceanic
03:09AM 48.1086 -45.0972 73° East 546 628 33,000  Level FlightAware Transoceanic
03:10AM 48.1520 -44.8794 73° East 546 628 33,000  Level FlightAware Transoceanic
03:11AM 48.1949 -44.6613 74° East 546 628 33,000  Level FlightAware Transoceanic
03:12AM 48.2375 -44.4427 74° East 546 628 33,000  Level FlightAware Transoceanic
03:13AM 48.2796 -44.2239 74° East 546 628 33,000  Level FlightAware Transoceanic
03:14AM 48.3214 -44.0047 74° East 546 628 33,000  Level FlightAware Transoceanic
03:15AM 48.3627 -43.7851 74° East 546 628 33,000  Level FlightAware Transoceanic
03:16AM 48.4036 -43.5651 74° East 546 628 33,000  Level FlightAware Transoceanic
03:17AM 48.4441 -43.3448 75° East 546 628 33,000  Level FlightAware Transoceanic
03:18AM 48.4841 -43.1242 75° East 546 628 33,000  Level FlightAware Transoceanic
03:19AM 48.5238 -42.9032 75° East 546 628 33,000  Level FlightAware Transoceanic
03:20AM 48.5630 -42.6819 75° East 546 628 33,000  Level FlightAware Transoceanic
03:21AM 48.6017 -42.4602 75° East 546 628 33,000  Level FlightAware Transoceanic
03:22AM 48.6401 -42.2382 75° East 546 628 33,000  Level FlightAware Transoceanic
03:23AM 48.6780 -42.0158 76° East 546 628 33,000  Level FlightAware Transoceanic
03:24AM 48.7155 -41.7931 76° East 546 628 33,000  Level FlightAware Transoceanic
03:25AM 48.7526 -41.5701 76° East 546 628 33,000  Level FlightAware Transoceanic
03:26AM 48.7893 -41.3468 76° East 546 628 33,000  Level FlightAware Transoceanic
03:27AM 48.8255 -41.1231 76° East 546 628 33,000  Level FlightAware Transoceanic
03:28AM 48.8613 -40.8991 76° East 546 628 33,000  Level FlightAware Transoceanic
03:29AM 48.8966 -40.6748 77° East 546 628 33,000  Level FlightAware Transoceanic
03:30AM 48.9315 -40.4502 77° East 546 628 33,000  Level FlightAware Transoceanic
03:31AM 48.9660 -40.2252 77° East 546 628 33,000  Level FlightAware Transoceanic
03:32AM 48.9998 -40.0011 77° East  Level FlightAware Approximate
03:33AM 49.0334 -39.7767 77° East  Level FlightAware Approximate
03:34AM 49.0322 -39.7776 77° East  Level FlightAware Approximate
03:35AM 49.0643 -39.5526 78° East  Level FlightAware Approximate
03:36AM 49.0960 -39.3273 78° East  Level FlightAware Approximate
03:37AM 49.1272 -39.1017 78° East  Level FlightAware Approximate
03:37AM 49.0000 -40.0000 77° East 562 647 33,000  Level ETMS Enhanced Traffic Management System
03:38AM 49.1580 -38.8759 78° East  Level FlightAware Approximate
03:39AM 49.1884 -38.6497 78° East  Level FlightAware Approximate
03:40AM 49.2183 -38.4233 78° East  Level FlightAware Approximate
03:41AM 49.2478 -38.1966 79° East  Level FlightAware Approximate
03:42AM 49.2768 -37.9697 79° East  Level FlightAware Approximate
03:43AM 49.3158 -37.6587 79° East 562 647 33,000  Level FlightAware Transoceanic
03:44AM 49.3448 -37.4230 79° East 562 647 33,000  Level FlightAware Transoceanic
03:45AM 49.3732 -37.1870 80° East 562 647 33,000  Level FlightAware Transoceanic
03:46AM 49.4012 -36.9507 80° East 562 647 33,000  Level FlightAware Transoceanic
03:47AM 49.4288 -36.7142 80° East 562 647 33,000  Level FlightAware Transoceanic
03:48AM 49.4558 -36.4773 80° East 562 647 33,000  Level FlightAware Transoceanic
03:49AM 49.4824 -36.2403 80° East 562 647 33,000  Level FlightAware Transoceanic
03:50AM 49.5084 -36.0030 80° East 562 647 33,000  Level FlightAware Transoceanic
03:51AM 49.5340 -35.7654 81° East 562 647 33,000  Level FlightAware Transoceanic
03:52AM 49.5591 -35.5276 81° East 562 647 33,000  Level FlightAware Transoceanic
03:53AM 49.5837 -35.2895 81° East 562 647 33,000  Level FlightAware Transoceanic
03:54AM 49.6078 -35.0512 81° East 562 647 33,000  Level FlightAware Transoceanic
03:55AM 49.6315 -34.8127 81° East 562 647 33,000  Level FlightAware Transoceanic
03:56AM 49.6546 -34.5739 82° East 562 647 33,000  Level FlightAware Transoceanic
03:57AM 49.6772 -34.3349 82° East 562 647 33,000  Level FlightAware Transoceanic
03:58AM 49.6994 -34.0957 82° East 562 647 33,000  Level FlightAware Transoceanic
03:59AM 49.7211 -33.8563 82° East 562 647 33,000  Level FlightAware Transoceanic
04:00AM 49.7422 -33.6167 82° East 562 647 33,000  Level FlightAware Transoceanic
04:01AM 49.7629 -33.3768 82° East 562 647 33,000  Level FlightAware Transoceanic
04:02AM 49.7831 -33.1368 83° East 562 647 33,000  Level FlightAware Transoceanic
04:03AM 49.8028 -32.8966 83° East 562 647 33,000  Level FlightAware Transoceanic
04:04AM 49.8220 -32.6561 83° East 562 647 33,000  Level FlightAware Transoceanic
04:05AM 49.8406 -32.4155 83° East 562 647 33,000  Level FlightAware Transoceanic
04:06AM 49.8588 -32.1747 83° East 562 647 33,000  Level FlightAware Transoceanic
04:07AM 49.8765 -31.9337 84° East 562 647 33,000  Level FlightAware Transoceanic
04:08AM 49.8937 -31.6926 84° East 562 647 33,000  Level FlightAware Transoceanic
04:09AM 49.9104 -31.4512 84° East 562 647 33,000  Level FlightAware Transoceanic
04:10AM 49.9266 -31.2097 84° East 562 647 33,000  Level FlightAware Transoceanic
04:11AM 49.9423 -30.9681 84° East 562 647 33,000  Level FlightAware Transoceanic
04:12AM 49.9575 -30.7263 85° East 562 647 33,000  Level FlightAware Transoceanic
04:13AM 49.9721 -30.4843 85° East 562 647 33,000  Level FlightAware Transoceanic
04:14AM 49.9863 -30.2422 85° East 562 647 33,000  Level FlightAware Transoceanic
04:15AM 49.9995 -30.0084 85° East  Level FlightAware Approximate
04:16AM 50.0121 -29.7744 85° East  Level FlightAware Approximate
04:17AM 50.0308 -29.7873 77° East  Level FlightAware Approximate
04:17AM 50.0000 -30.0000 77° East 564 649 33,000  Level ETMS Enhanced Traffic Management System
04:18AM 50.0635 -29.5578 77° East  Level FlightAware Approximate
04:19AM 50.0958 -29.3281 78° East  Level FlightAware Approximate
04:20AM 50.1276 -29.0980 78° East  Level FlightAware Approximate
04:21AM 50.1590 -28.8677 78° East  Level FlightAware Approximate
04:22AM 50.1899 -28.6370 78° East  Level FlightAware Approximate
04:23AM 50.2619 -28.0847 79° East 564 649 33,000  Level FlightAware Transoceanic
04:24AM 50.2924 -27.8438 79° East 564 649 33,000  Level FlightAware Transoceanic
04:25AM 50.3224 -27.6027 79° East 564 649 33,000  Level FlightAware Transoceanic
04:26AM 50.3519 -27.3612 79° East 564 649 33,000  Level FlightAware Transoceanic
04:27AM 50.3809 -27.1194 79° East 564 649 33,000  Level FlightAware Transoceanic
04:28AM 50.4094 -26.8774 80° East 564 649 33,000  Level FlightAware Transoceanic
04:29AM 50.4374 -26.6350 80° East 564 649 33,000  Level FlightAware Transoceanic
04:30AM 50.4650 -26.3924 80° East 564 649 33,000  Level FlightAware Transoceanic
04:31AM 50.4920 -26.1495 80° East 564 649 33,000  Level FlightAware Transoceanic
04:32AM 50.5184 -25.9063 80° East 564 649 33,000  Level FlightAware Transoceanic
04:33AM 50.5444 -25.6629 81° East 564 649 33,000  Level FlightAware Transoceanic
04:34AM 50.5699 -25.4191 81° East 564 649 33,000  Level FlightAware Transoceanic
04:35AM 50.5949 -25.1752 81° East 564 649 33,000  Level FlightAware Transoceanic
04:36AM 50.6193 -24.9309 81° East 564 649 33,000  Level FlightAware Transoceanic
04:37AM 50.6433 -24.6864 81° East 564 649 33,000  Level FlightAware Transoceanic
04:38AM 50.6667 -24.4417 82° East 564 649 33,000  Level FlightAware Transoceanic
04:39AM 50.6896 -24.1967 82° East 564 649 33,000  Level FlightAware Transoceanic
04:40AM 50.7120 -23.9515 82° East 564 649 33,000  Level FlightAware Transoceanic
04:41AM 50.7339 -23.7061 82° East 564 649 33,000  Level FlightAware Transoceanic
04:42AM 50.7553 -23.4604 82° East 564 649 33,000  Level FlightAware Transoceanic
04:43AM 50.7762 -23.2145 82° East 564 649 33,000  Level FlightAware Transoceanic
04:44AM 50.7965 -22.9684 83° East 564 649 33,000  Level FlightAware Transoceanic
04:45AM 50.8163 -22.7220 83° East 564 649 33,000  Level FlightAware Transoceanic
04:46AM 50.8357 -22.4755 83° East 564 649 33,000  Level FlightAware Transoceanic
04:47AM 50.8544 -22.2288 83° East 564 649 33,000  Level FlightAware Transoceanic
04:48AM 50.8727 -21.9818 83° East 564 649 33,000  Level FlightAware Transoceanic
04:49AM 50.8904 -21.7347 84° East 564 649 33,000  Level FlightAware Transoceanic
04:50AM 50.9077 -21.4874 84° East 564 649 33,000  Level FlightAware Transoceanic
04:51AM 50.9244 -21.2399 84° East 564 649 33,000  Level FlightAware Transoceanic
04:52AM 50.9405 -20.9923 84° East 564 649 33,000  Level FlightAware Transoceanic
04:53AM 50.9562 -20.7444 84° East 564 649 33,000  Level FlightAware Transoceanic
04:54AM 50.9713 -20.4965 85° East 564 649 33,000  Level FlightAware Transoceanic
04:55AM 50.9859 -20.2483 85° East 564 649 33,000  Level FlightAware Transoceanic
04:56AM 50.9995 -20.0095 85° East  Level FlightAware Approximate
04:57AM 51.0126 -19.7705 85° East  Level FlightAware Approximate
04:58AM 50.9758 -19.7827 100° East  Level FlightAware Approximate
04:59AM 50.9491 -19.5468 100° East  Level FlightAware Approximate
05:00AM 50.9219 -19.3113 100° East  Level FlightAware Approximate
05:01AM 50.8942 -19.0760 100° East  Level FlightAware Approximate
05:02AM 50.8661 -18.8410 101° East  Level FlightAware Approximate
05:03AM 50.8375 -18.6062 101° East  Level FlightAware Approximate
05:04AM 50.8084 -18.3718 101° East  Level FlightAware Approximate
05:05AM 50.7789 -18.1377 101° East  Level FlightAware Approximate
05:06AM 50.7488 -17.9038 101° East  Level FlightAware Approximate
05:07AM 50.7183 -17.6703 102° East  Level FlightAware Approximate
05:08AM 50.6874 -17.4370 102° East  Level FlightAware Approximate
05:09AM 50.6560 -17.2041 102° East  Level FlightAware Approximate
05:10AM 50.6241 -16.9715 102° East  Level FlightAware Approximate
05:11AM 50.5917 -16.7392 102° East  Level FlightAware Approximate
05:12AM 50.5589 -16.5073 102° East  Level FlightAware Approximate
05:13AM 50.5257 -16.2756 103° East  Level FlightAware Approximate
05:14AM 50.4919 -16.0443 103° East  Level FlightAware Approximate
05:15AM 50.4577 -15.8133 103° East  Level FlightAware Approximate
05:16AM 50.4231 -15.5827 103° East  Level FlightAware Approximate
05:17AM 50.3880 -15.3523 103° East  Level FlightAware Approximate
05:18AM 50.3525 -15.1224 104° East  Level FlightAware Approximate
05:19AM 50.3163 -14.8928 104° East  Level FlightAware Approximate
05:20AM 50.2794 -14.6637 104° East  Level FlightAware Approximate
05:21AM 50.2421 -14.4349 104° East  Level FlightAware Approximate
05:22AM 50.2044 -14.2065 104° East  Level FlightAware Approximate
05:23AM 50.1662 -13.9785 105° East  Level FlightAware Approximate
05:24AM 50.1276 -13.7508 105° East  Level FlightAware Approximate
05:25AM 50.0885 -13.5235 105° East  Level FlightAware Approximate
05:26AM 50.0490 -13.2966 105° East  Level FlightAware Approximate
05:27AM 50.0091 -13.0701 105° East  Level FlightAware Approximate
05:28AM 49.9687 -12.8439 105° East  Level FlightAware Approximate
05:29AM 49.9278 -12.6181 106° East  Level FlightAware Approximate
05:30AM 49.8866 -12.3927 106° East  Level FlightAware Approximate
05:31AM 49.8449 -12.1676 106° East  Level FlightAware Approximate
05:32AM 49.8027 -11.9430 106° East  Level FlightAware Approximate
05:33AM 49.7601 -11.7188 106° East  Level FlightAware Approximate
05:34AM 49.7171 -11.4949 106° East  Level FlightAware Approximate
05:34AM 50.1730 -11.0670 107° East 563 648 35,000  Level FlightAware
05:35AM 49.6737 -11.2715 107° East  Level FlightAware Approximate
05:35AM 50.1330 -10.8920 110° East 565 650 35,000  Level FlightAware
05:36AM 50.0960 -10.7360 110° East 565 650 35,000  Level FlightAware
05:36AM 50.0590 -10.5780 110° East 565 650 35,000  Level FlightAware
05:37AM 50.0300 -10.4550 110° East 565 650 35,000  Level FlightAware
05:38AM 49.9870 -10.2750 110° East 565 650 35,000  Level FlightAware
05:39AM 49.9460 -10.1040 110° East 564 649 35,000  Level FlightAware
05:39AM 49.9080 -9.9450 110° East 564 649 35,000  Level FlightAware
05:40AM 49.8720 -9.7960 111° Southeast 564 649 35,000  Level FlightAware
05:41AM 49.8330 -9.6360 111° Southeast 565 650 35,000  Level FlightAware
05:41AM 49.7900 -9.4630 111° Southeast 565 650 35,000  Level FlightAware
05:42AM 49.7530 -9.3110 111° Southeast 566 651 35,000  Level FlightAware
05:43AM 49.7100 -9.1400 111° Southeast 566 651 35,000  Level FlightAware
05:43AM 49.6799 -8.9846 111° Southeast 496 571 35,000  Level FlightAware UK
05:43AM 49.6730 -8.9890 111° Southeast 567 652 35,000  Level FlightAware
05:44AM 49.6320 -8.8270 111° Southeast 567 652 35,000  Level FlightAware
05:45AM 49.5942 -8.6459 111° Southeast 496 571 35,000  Level FlightAware UK
05:45AM 49.5900 -8.6640 111° Southeast 568 654 35,000  Level FlightAware
05:46AM 49.5530 -8.5180 111° Southeast 568 654 35,000  Level FlightAware
05:46AM 49.5150 -8.3710 112° Southeast 567 652 35,000  Level FlightAware
05:47AM 49.4782 -8.1962 112° Southeast 494 568 35,000  Level FlightAware UK
05:47AM 49.4710 -8.2010 112° Southeast 566 651 35,000  Level FlightAware
05:48AM 49.4300 -8.0410 111° Southeast 566 651 35,000  Level FlightAware
05:48AM 49.3898 -7.8599 111° Southeast 494 568 35,000  Level FlightAware UK
05:48AM 49.3870 -7.8790 111° Southeast 566 651 35,000  Level FlightAware
05:49AM 49.3420 -7.7090 112° Southeast 565 650 35,000  Level FlightAware
05:50AM 49.3140 -7.6050 112° Southeast 563 648 35,000  Level FlightAware
05:50AM 49.2639 -7.4222 112° Southeast 492 566 35,000  Level FlightAware UK
05:50AM 49.2640 -7.4480 112° Southeast 563 648 35,000  Level FlightAware
05:51AM 49.2120 -7.3020 119° Southeast 562 647 35,000  Level FlightAware
05:52AM 49.1610 -7.1600 119° Southeast 562 647 35,000  Level FlightAware
05:52AM 49.1053 -6.9854 119° Southeast 492 566 35,000  Level FlightAware UK
05:52AM 49.1050 -7.0080 119° Southeast 562 647 35,000  Level FlightAware
05:53AM 49.0587 -6.8611 119° Southeast 492 566 35,000  Level FlightAware UK
05:53AM 49.0550 -6.8730 119° Southeast 562 647 35,000  Level FlightAware
05:54AM 48.9960 -6.7190 120° Southeast 563 648 35,000  Level FlightAware
05:55AM 48.9440 -6.5800 120° Southeast 564 649 35,000  Level FlightAware
05:55AM 48.8939 -6.4308 120° Southeast 492 566 35,000  Level FlightAware UK
05:55AM 48.8910 -6.4430 120° Southeast 564 649 35,000  Level FlightAware
05:56AM 48.8370 -6.3020 120° Southeast 565 650 35,000  Level FlightAware
05:56AM 48.7908 -6.1650 120° Southeast 492 566 35,000  Level FlightAware UK
05:57AM 48.7790 -6.1510 120° Southeast 565 650 35,000  Level FlightAware
05:57AM 48.7200 -6.0010 121° Southeast 565 650 35,000  Level FlightAware
05:58AM 48.6635 -5.8379 121° Southeast 492 566 35,000  Level FlightAware UK
05:58AM 48.6650 -5.8600 121° Southeast 567 652 35,000  Level FlightAware
05:59AM 48.6229 -5.7353 121° Southeast 494 568 35,000  Level FlightAware UK
05:59AM 48.6130 -5.7250 121° Southeast 567 652 35,000  Level FlightAware
05:59AM 48.5630 -5.6000 121° Southeast 568 654 35,000  Level FlightAware
06:00AM 48.4970 -5.4330 121° Southeast 566 651 35,000  Level FlightAware
06:01AM 48.4440 -5.3000 121° Southeast 566 651 35,000  Level FlightAware
06:02AM 48.3880 -5.1580 121° Southeast 566 651 35,000  Level FlightAware
06:02AM 48.3392 -5.0257 121° Southeast 494 568 35,000  Level FlightAware UK
06:02AM 48.3250 -5.0010 121° Southeast 566 651 35,000  Level FlightAware
06:03AM 48.2700 -4.8680 122° Southeast 566 651 35,000  Level FlightAware
06:04AM 48.2170 -4.7350 121° Southeast 566 651 35,000  Level FlightAware
06:04AM 48.1560 -4.5870 122° Southeast 568 654 35,000  Level FlightAware
06:05AM 48.1020 -4.4540 121° Southeast 568 654 35,000  Level FlightAware
06:06AM 48.0410 -4.3040 121° Southeast 568 654 35,000  Level FlightAware
06:06AM 47.9810 -4.1570 121° Southeast 567 652 35,000  Level FlightAware
06:07AM 47.9250 -4.0210 122° Southeast 567 652 35,000  Level FlightAware
06:08AM 47.8800 -3.9140 122° Southeast 567 652 35,000  Level FlightAware
06:08AM 47.8160 -3.7620 122° Southeast 566 651 35,000  Level FlightAware
06:09AM 47.7620 -3.6330 122° Southeast 566 651 35,000  Level FlightAware
06:10AM 47.7060 -3.5000 122° Southeast 566 651 35,000  Level FlightAware
06:11AM 47.6450 -3.3550 122° Southeast 565 650 35,000  Level FlightAware
06:11AM 47.5890 -3.2250 123° Southeast 564 649 35,000  Level FlightAware
06:12AM 47.5270 -3.0800 122° Southeast 565 650 35,000  Level FlightAware
06:13AM 47.4680 -2.9420 122° Southeast 564 649 35,000  Level FlightAware
06:13AM 47.4090 -2.8070 123° Southeast 563 648 35,000  Level FlightAware
06:14AM 47.3550 -2.6820 122° Southeast 563 648 35,000  Level FlightAware
06:14AM 47.3110 -2.5820 123° Southeast 563 648 35,000  Level FlightAware
06:15AM 47.2630 -2.4730 123° Southeast 563 648 35,000  Level FlightAware
06:16AM 47.2010 -2.3330 123° Southeast 562 647 35,000  Level FlightAware
06:16AM 47.1450 -2.2060 123° Southeast 562 647 35,000  Level FlightAware
06:17AM 47.0810 -2.0620 123° Southeast 562 647 35,000  Level FlightAware
06:18AM 47.0210 -1.9290 123° Southeast 563 648 35,000  Level FlightAware
06:19AM 46.9630 -1.8010 124° Southeast 563 648 35,000  Level FlightAware
06:19AM 46.9000 -1.6620 124° Southeast 563 648 35,000  Level FlightAware
06:20AM 46.8390 -1.5290 124° Southeast 562 647 35,000  Level FlightAware
06:21AM 46.7760 -1.3920 124° Southeast 562 647 35,000  Level FlightAware
06:21AM 46.7180 -1.2660 124° Southeast 560 644 35,000  Level FlightAware
06:22AM 46.6550 -1.1290 124° Southeast 561 646 35,000  Level FlightAware
06:23AM 46.6040 -0.9980 120° Southeast 560 644 35,000  Level FlightAware
06:23AM 46.5550 -0.8670 119° Southeast 560 644 35,000  Level FlightAware
06:24AM 46.4810 -0.6770 119° Southeast 561 646 35,000  Level FlightAware
06:25AM 46.4330 -0.5570 120° Southeast 562 647 35,000  Level FlightAware
06:26AM 46.3790 -0.4250 121° Southeast 562 647 35,000  Level FlightAware
06:27AM 46.3190 -0.2810 121° Southeast 563 648 35,000  Level FlightAware
06:27AM 46.2630 -0.1470 121° Southeast 563 648 35,000  Level FlightAware
06:28AM 46.2130 -0.0200 120° Southeast 561 646 35,000  Level FlightAware
06:29AM 46.1690 0.1460 111° Southeast 559 643 35,000  Level FlightAware
06:29AM 46.1330 0.2850 110° East 560 644 35,000  Level FlightAware
06:30AM 46.0940 0.4340 111° Southeast 560 644 35,000  Level FlightAware
06:31AM 46.0570 0.5740 111° Southeast 560 644 35,000  Level FlightAware
06:31AM 46.0320 0.7210 104° East 546 628 35,000  Level FlightAware
06:32AM 46.0360 0.8830 88° East 542 624 35,000  Level FlightAware
06:33AM 46.0370 1.0160 89° East 545 627 35,000  Level FlightAware
06:34AM 46.0330 1.1790 92° East 547 629 35,000  Level FlightAware
06:34AM 46.0290 1.3260 92° East 550 633 35,000  Level FlightAware
06:35AM 46.0250 1.5890 91° East 547 629 35,000  Level FlightAware
06:36AM 46.0250 1.7530 90° East 547 629 35,000  Level FlightAware
06:37AM 46.0240 1.9010 91° East 547 629 35,000  Level FlightAware
06:37AM 46.0230 2.0290 91° East 548 631 35,000  Level FlightAware
06:38AM 46.0210 2.2040 91° East 549 632 35,000  Level FlightAware
06:39AM 46.0190 2.3710 91° East 550 633 35,000  Level FlightAware
06:40AM 46.0170 2.5230 91° East 552 635 35,000  Level FlightAware
06:40AM 46.0150 2.6460 91° East 554 638 35,000  Level FlightAware
06:41AM 45.9840 2.8210 104° East 578 665 35,000  Level FlightAware
06:41AM 45.9400 2.8960 130° Southeast 581 669 35,000  Level FlightAware
06:42AM 45.8490 3.0130 138° Southeast 583 671 35,000  Level FlightAware
06:43AM 45.7620 3.1200 139° Southeast 584 672 35,000  Level FlightAware
06:44AM 45.6550 3.2540 139° Southeast 585 673 35,000  Level FlightAware
06:44AM 45.5750 3.3530 139° Southeast 585 673 35,000  Level FlightAware
06:45AM 45.4860 3.4640 139° Southeast 580 667 35,000  Level FlightAware
06:46AM 45.3690 3.6080 139° Southeast 580 667 35,000  Level FlightAware
06:47AM 45.2810 3.7380 134° Southeast 583 671 35,000  Level FlightAware
06:47AM 45.2230 3.8560 125° Southeast 582 670 35,000  Level FlightAware
06:48AM 45.1740 3.9650 122° Southeast 578 665 35,000  Level FlightAware
06:49AM 45.0920 4.1540 122° Southeast 578 665 35,000  Level FlightAware
06:50AM 45.0260 4.3110 121° Southeast 577 664 35,000  Level FlightAware
06:51AM 44.9700 4.4440 121° Southeast 576 663 35,000  Level FlightAware
06:51AM 44.9110 4.5850 121° Southeast 575 662 35,000  Level FlightAware
06:52AM 44.8510 4.7170 123° Southeast 576 663 35,000  Level FlightAware
06:53AM 44.7890 4.8420 125° Southeast 575 662 35,000  Level FlightAware
06:53AM 44.7180 4.9840 125° Southeast 576 663 35,000  Level FlightAware
06:54AM 44.6580 5.1070 124° Southeast 577 664 35,000 240 Level FlightAware
06:55AM 44.5900 5.2450 125° Southeast 576 663 35,400 660 Climbing FlightAware
06:55AM 44.5280 5.3720 124° Southeast 574 661 36,000 420 Climbing FlightAware
06:56AM 44.4690 5.4930 124° Southeast 574 661 36,000  Level FlightAware
06:57AM 44.4010 5.6310 125° Southeast 568 654 36,000  Level FlightAware
06:58AM 44.3440 5.7460 125° Southeast 564 649 36,000  Level FlightAware
06:58AM 44.2730 5.8870 125° Southeast 562 647 36,000 300 Level FlightAware
06:59AM 44.2140 6.0020 126° Southeast 559 643 36,500 720 Climbing FlightAware
07:00AM 44.1540 6.1210 125° Southeast 556 640 37,000 300 Climbing FlightAware
07:00AM 44.0920 6.2580 122° Southeast 561 646 37,000  Level FlightAware
07:01AM 44.0440 6.3770 119° Southeast 555 639 37,000  Level FlightAware
07:02AM 43.9910 6.5100 119° Southeast 559 643 37,000  Level FlightAware
07:02AM 43.9350 6.6510 119° Southeast 554 638 37,000  Level FlightAware
07:03AM 43.8680 6.8210 119° Southeast 562 647 37,000  Level FlightAware
07:04AM 43.8110 6.9630 119° Southeast 563 648 37,000  Level FlightAware
07:05AM 43.7630 7.0880 118° Southeast 561 646 37,000  Level FlightAware
07:06AM 43.7030 7.2320 120° Southeast 564 649 37,000  Level FlightAware
07:06AM 43.6510 7.3560 120° Southeast 563 648 37,000  Level FlightAware
07:07AM 43.5850 7.4750 127° Southeast 563 648 37,000  Level FlightAware
07:08AM 43.5260 7.5870 126° Southeast 567 652 37,000  Level FlightAware
07:08AM 43.4590 7.7200 125° Southeast 571 657 37,000  Level FlightAware
07:09AM 43.3990 7.8410 124° Southeast 572 658 37,000  Level FlightAware
07:10AM 43.3420 7.9560 124° Southeast 572 658 37,000  Level FlightAware
07:10AM 43.2800 8.0820 124° Southeast 571 657 37,000  Level FlightAware
07:11AM 43.2070 8.2300 124° Southeast 570 656 37,000  Level FlightAware
07:12AM 43.1240 8.3980 124° Southeast 563 648 37,000  Level FlightAware
07:13AM 43.0680 8.5120 124° Southeast 560 644 37,000  Level FlightAware
07:13AM 43.0040 8.6400 124° Southeast 556 640 37,000  Level FlightAware
07:14AM 42.9420 8.7620 125° Southeast 553 636 37,000  Level FlightAware
07:15AM 42.8800 8.8850 124° Southeast 550 633 37,000  Level FlightAware
07:16AM 42.8190 9.0050 125° Southeast 548 631 37,000  Level FlightAware
07:16AM 42.7590 9.1230 125° Southeast 548 631 37,000  Level FlightAware
07:17AM 42.7000 9.2380 125° Southeast 547 629 37,000  Level FlightAware
07:18AM 42.6340 9.3680 125° Southeast 547 629 37,000  Level FlightAware
07:19AM 42.5680 9.5310 119° Southeast 554 638 37,000  Level FlightAware
07:19AM 42.5330 9.6630 110° East 553 636 37,000  Level FlightAware
07:20AM 42.4930 9.8070 111° Southeast 549 632 37,000  Level FlightAware
07:21AM 42.4350 9.9310 122° Southeast 543 625 37,000  Level FlightAware
07:21AM 42.3800 10.0440 123° Southeast 544 626 37,000  Level FlightAware
07:22AM 42.3240 10.1660 122° Southeast 545 627 37,000  Level FlightAware
07:23AM 42.2690 10.2870 122° Southeast 546 628 37,000  Level FlightAware
07:24AM 42.1960 10.4410 123° Southeast 540 621 37,000  Level FlightAware
07:24AM 42.1350 10.5670 123° Southeast 538 619 37,000  Level FlightAware
07:25AM 42.0790 10.6810 123° Southeast 537 618 37,000  Level FlightAware
07:26AM 42.0230 10.7940 124° Southeast 536 617 37,000  Level FlightAware
07:27AM 41.9620 10.9190 123° Southeast 536 617 37,000  Level FlightAware
07:27AM 41.9060 11.0320 124° Southeast 535 616 37,000  Level FlightAware
07:28AM 41.8510 11.1430 124° Southeast 538 619 37,000  Level FlightAware
07:29AM 41.7880 11.2700 124° Southeast 538 619 37,000  Level FlightAware
07:29AM 41.7330 11.3810 124° Southeast 538 619 37,000  Level FlightAware
07:30AM 41.6700 11.5060 124° Southeast 536 617 37,000  Level FlightAware
07:31AM 41.6140 11.6170 124° Southeast 533 613 37,000  Level FlightAware
07:31AM 41.5590 11.7260 124° Southeast 530 610 37,000  Level FlightAware
07:32AM 41.4970 11.8480 124° Southeast 526 605 37,000  Level FlightAware
07:33AM 41.4420 11.9570 124° Southeast 523 602 37,000  Level FlightAware
07:33AM 41.3890 12.0600 124° Southeast 523 602 37,000  Level FlightAware
07:34AM 41.3300 12.1760 124° Southeast 521 600 37,000  Level FlightAware
07:35AM 41.2700 12.2930 124° Southeast 520 598 37,000  Level FlightAware
07:36AM 41.2150 12.3990 125° Southeast 517 595 37,000  Level FlightAware
07:37AM 41.1320 12.5590 125° Southeast 523 602 37,000  Level FlightAware
07:37AM 41.0820 12.6690 121° Southeast 529 609 37,000  Level FlightAware
07:38AM 41.0320 12.7820 120° Southeast 527 606 37,000  Level FlightAware
07:39AM 40.9760 12.9100 120° Southeast 526 605 37,000  Level FlightAware
07:39AM 40.9270 13.0200 120° Southeast 524 603 37,000  Level FlightAware
07:40AM 40.8730 13.1420 120° Southeast 523 602 37,000  Level FlightAware
07:41AM 40.8230 13.2540 121° Southeast 524 603 37,000  Level FlightAware
07:41AM 40.7740 13.3640 120° Southeast 524 603 37,000  Level FlightAware
07:42AM 40.7200 13.4850 120° Southeast 526 605 37,000  Level FlightAware
07:43AM 40.6670 13.6030 121° Southeast 528 608 37,000  Level FlightAware
07:44AM 40.6110 13.7270 121° Southeast 530 610 37,000  Level FlightAware
07:44AM 40.5580 13.8440 121° Southeast 529 609 37,000  Level FlightAware
07:45AM 40.5110 13.9480 121° Southeast 529 609 37,000  Level FlightAware
07:46AM 40.4550 14.0700 121° Southeast 527 606 37,000  Level FlightAware
07:46AM 40.4240 14.1390 121° Southeast 527 606 37,000  Level FlightAware
07:47AM 40.3750 14.2450 121° Southeast 525 604 37,000  Level FlightAware
07:47AM 40.3230 14.3590 121° Southeast 523 602 37,000  Level FlightAware
07:48AM 40.2760 14.4620 121° Southeast 521 600 37,000  Level FlightAware
07:49AM 40.2200 14.5810 122° Southeast 514 592 37,000  Level FlightAware
07:49AM 40.1670 14.6960 121° Southeast 511 588 37,000  Level FlightAware
07:50AM 40.1150 14.8070 121° Southeast 509 586 37,000  Level FlightAware
07:51AM 40.0710 14.9010 121° Southeast 509 586 37,000  Level FlightAware
07:52AM 40.0140 15.0230 121° Southeast 509 586 37,000  Level FlightAware
07:52AM 39.9610 15.1350 122° Southeast 508 585 37,000  Level FlightAware
07:53AM 39.9100 15.2430 122° Southeast 505 581 37,000  Level FlightAware
07:54AM 39.8580 15.3510 122° Southeast 502 578 37,000  Level FlightAware
07:54AM 39.8060 15.4610 122° Southeast 501 577 37,000  Level FlightAware
07:55AM 39.7640 15.5670 117° Southeast 506 582 37,000  Level FlightAware
07:56AM 39.7210 15.6950 114° Southeast 506 582 37,000  Level FlightAware
07:56AM 39.6840 15.8040 114° Southeast 506 582 37,000  Level FlightAware
07:57AM 39.6440 15.9230 114° Southeast 506 582 37,000  Level FlightAware
07:58AM 39.6020 16.0470 114° Southeast 510 587 37,000  Level FlightAware
07:59AM 39.5640 16.1590 114° Southeast 510 587 37,000  Level FlightAware
07:59AM 39.5210 16.2810 115° Southeast 508 585 37,000  Level FlightAware
08:00AM 39.4830 16.3920 114° Southeast 509 586 37,000  Level FlightAware
08:01AM 39.4400 16.5150 114° Southeast 512 589 37,000  Level FlightAware
08:01AM 39.4000 16.6300 114° Southeast 512 589 37,000  Level FlightAware
08:02AM 39.3630 16.7350 114° Southeast 506 582 37,000  Level FlightAware
08:03AM 39.3200 16.8580 114° Southeast 506 582 37,000  Level FlightAware
08:03AM 39.2790 16.9750 114° Southeast 511 588 37,000  Level FlightAware
08:04AM 39.2370 17.0940 114° Southeast 513 590 37,000  Level FlightAware
08:05AM 39.1990 17.2010 115° Southeast 516 594 37,000  Level FlightAware
08:06AM 39.1570 17.3180 115° Southeast 518 596 37,000  Level FlightAware
08:06AM 39.1150 17.4340 115° Southeast 519 597 37,000  Level FlightAware
08:07AM 39.0740 17.5500 114° Southeast 520 598 37,000  Level FlightAware
08:08AM 39.0280 17.6770 115° Southeast 520 598 37,000  Level FlightAware
08:09AM 38.9880 17.7880 115° Southeast 521 600 37,000  Level FlightAware
08:10AM 38.9270 17.9550 115° Southeast 518 596 37,000  Level FlightAware
08:10AM 38.8930 18.0480 115° Southeast 517 595 37,000  Level FlightAware
08:11AM 38.8240 18.2350 115° Southeast 512 589 37,000  Level FlightAware
08:12AM 38.7750 18.3690 115° Southeast 514 592 37,000  Level FlightAware
08:13AM 38.7350 18.4760 116° Southeast 515 593 37,000  Level FlightAware
08:13AM 38.6930 18.5900 115° Southeast 515 593 37,000  Level FlightAware
08:14AM 38.6530 18.7060 114° Southeast 515 593 37,000  Level FlightAware
08:15AM 38.6190 18.8130 112° Southeast 515 593 37,000  Level FlightAware
08:16AM 38.5770 18.9570 110° East 522 601 37,000  Level FlightAware
08:16AM 38.5330 19.1080 110° East 519 597 37,000  Level FlightAware
08:17AM 38.4940 19.2390 111° Southeast 520 598 37,000  Level FlightAware
08:18AM 38.4590 19.3530 111° Southeast 521 600 37,000  Level FlightAware
08:18AM 38.4240 19.4690 111° Southeast 522 601 37,000  Level FlightAware
08:19AM 38.3840 19.5980 112° Southeast 522 601 37,000  Level FlightAware
08:20AM 38.3450 19.7270 111° Southeast 522 601 37,000  Level FlightAware
08:20AM 38.3100 19.8430 111° Southeast 522 601 37,000  Level FlightAware
08:21AM 38.2740 19.9580 112° Southeast 522 601 37,000  Level FlightAware
08:22AM 38.2390 20.0740 111° Southeast 525 604 37,000  Level FlightAware
08:23AM 38.1990 20.2020 112° Southeast 526 605 37,000  Level FlightAware
08:23AM 38.1630 20.3200 111° Southeast 526 605 37,000  Level FlightAware
08:24AM 38.1230 20.4470 112° Southeast 527 606 37,000  Level FlightAware
08:25AM 38.0870 20.5610 112° Southeast 529 609 37,000  Level FlightAware
08:25AM 38.0480 20.6850 112° Southeast 532 612 37,000  Level FlightAware
08:26AM 38.0090 20.8080 112° Southeast 531 611 37,000  Level FlightAware
08:27AM 37.9670 20.9410 112° Southeast 533 613 37,000  Level FlightAware
08:27AM 37.9440 21.0120 112° Southeast 534 615 37,000  Level FlightAware
08:28AM 37.9020 21.1440 112° Southeast 536 617 37,000  Level FlightAware
08:29AM 37.8650 21.2570 112° Southeast 536 617 37,000  Level FlightAware
08:29AM 37.8300 21.3730 111° Southeast 536 617 37,000  Level FlightAware
08:30AM 37.8030 21.4620 111° Southeast 536 617 37,000  Level FlightAware
08:31AM 37.7750 21.5540 111° Southeast 536 617 37,000  Level FlightAware
08:31AM 37.7390 21.6740 111° Southeast 536 617 37,000  Level FlightAware
08:32AM 37.7040 21.7880 111° Southeast 536 617 37,000  Level FlightAware
08:33AM 37.6750 21.8830 111° Southeast 536 617 37,000  Level FlightAware
08:33AM 37.5860 22.1070 117° Southeast 535 616 37,000  Level FlightAware
08:34AM 37.5560 22.2030 111° Southeast 535 616 37,000  Level FlightAware
08:35AM 37.5010 22.3630 113° Southeast 37,000  Level FlightAware
08:36AM 37.4640 22.4710 113° Southeast 533 613 37,000  Level FlightAware
08:37AM 37.4060 22.6420 113° Southeast 531 611 37,000  Level FlightAware
08:37AM 37.3650 22.7630 113° Southeast 532 612 37,000  Level FlightAware
08:38AM 37.3190 22.8960 113° Southeast 532 612 37,000  Level FlightAware
08:39AM 37.2730 23.0290 113° Southeast 531 611 37,000  Level FlightAware
08:40AM 37.2290 23.1590 113° Southeast 531 611 37,000  Level FlightAware
08:40AM 37.1880 23.2790 113° Southeast 532 612 37,000  Level FlightAware
08:41AM 37.1470 23.3980 113° Southeast 532 612 37,000  Level FlightAware
08:42AM 37.1070 23.5130 114° Southeast 531 611 37,000  Level FlightAware
08:42AM 37.0680 23.6250 114° Southeast 531 611 37,000  Level FlightAware
08:43AM 37.0240 23.7510 114° Southeast 530 610 37,000  Level FlightAware
08:44AM 36.9850 23.8630 114° Southeast 530 610 37,000  Level FlightAware
08:45AM 36.9410 23.9850 114° Southeast 530 610 37,000  Level FlightAware
08:45AM 36.8990 24.1030 114° Southeast 530 610 37,000  Level FlightAware
08:46AM 36.8590 24.2160 114° Southeast 530 610 37,000  Level FlightAware
08:47AM 36.8150 24.3390 114° Southeast 530 610 37,000  Level FlightAware
08:47AM 36.7760 24.4490 114° Southeast 528 608 37,000  Level FlightAware
08:48AM 36.7290 24.5780 114° Southeast 528 608 37,000  Level FlightAware
08:49AM 36.6890 24.6900 114° Southeast 527 606 37,000  Level FlightAware
08:49AM 36.6530 24.7880 115° Southeast 527 606 37,000  Level FlightAware
08:50AM 36.6250 24.8640 115° Southeast 527 606 37,000  Level FlightAware
08:51AM 36.5560 25.0510 115° Southeast 525 604 37,000  Level FlightAware
08:52AM 36.4990 25.2070 114° Southeast 524 603 37,000  Level FlightAware
08:53AM 36.4570 25.3200 115° Southeast 524 603 37,000  Level FlightAware
08:53AM 36.4090 25.4470 115° Southeast 526 605 37,000  Level FlightAware
08:54AM 36.3730 25.5450 114° Southeast 527 606 37,000  Level FlightAware
08:55AM 36.3120 25.7090 115° Southeast 525 604 37,000  Level FlightAware
08:56AM 36.2440 25.8900 115° Southeast 525 604 37,000  Level FlightAware
08:57AM 36.2070 25.9880 115° Southeast 525 604 37,000  Level FlightAware
08:58AM 36.1450 26.1530 115° Southeast 525 604 37,000  Level FlightAware
08:59AM 36.0850 26.3090 115° Southeast 524 603 37,000  Level FlightAware
08:59AM 36.0270 26.4610 115° Southeast 524 603 37,000  Level FlightAware
09:00AM 35.9860 26.5680 115° Southeast 525 604 37,000  Level FlightAware
09:01AM 35.9260 26.7250 115° Southeast 526 605 37,000  Level FlightAware
09:02AM 35.8670 26.8780 115° Southeast 526 605 37,000  Level FlightAware
09:03AM 35.8270 26.9800 116° Southeast 526 605 37,000  Level FlightAware
09:03AM 35.7870 27.0830 116° Southeast 526 605 37,000  Level FlightAware
09:04AM 35.7390 27.2060 116° Southeast 527 606 37,000  Level FlightAware
09:05AM 35.7000 27.3050 116° Southeast 526 605 37,000  Level FlightAware
09:06AM 35.6550 27.4230 115° Southeast 527 606 37,000  Level FlightAware
09:06AM 35.6190 27.5170 115° Southeast 527 606 37,000  Level FlightAware
09:07AM 35.5690 27.6490 115° Southeast 527 606 37,000  Level FlightAware
09:08AM 35.5350 27.7390 115° Southeast 527 606 37,000  Level FlightAware
09:08AM 35.5150 27.7920 115° Southeast 527 606 37,000  Level FlightAware
09:09AM 35.4210 28.0110 118° Southeast 526 605 37,000  Level FlightAware
09:10AM 35.3790 28.1140 117° Southeast 525 604 37,000  Level FlightAware
09:11AM 35.3280 28.2400 116° Southeast 524 603 37,000  Level FlightAware
09:11AM 35.2830 28.3540 116° Southeast 524 603 37,000  Level FlightAware
09:12AM 35.2380 28.4650 116° Southeast 524 603 37,000  Level FlightAware
09:13AM 35.1950 28.5700 117° Southeast 524 603 37,000  Level FlightAware
09:13AM 35.1480 28.6840 117° Southeast 523 602 37,000  Level FlightAware
09:14AM 35.0990 28.8060 116° Southeast 520 598 37,000  Level FlightAware
09:15AM 35.0420 28.9410 117° Southeast 523 602 37,000  Level FlightAware
09:16AM 34.9990 29.0460 117° Southeast 522 601 37,000  Level FlightAware
09:16AM 34.9500 29.1660 116° Southeast 523 602 37,000  Level FlightAware
09:17AM 34.8880 29.3140 117° Southeast 520 598 37,000  Level FlightAware
09:18AM 34.8520 29.4000 117° Southeast 521 600 37,000  Level FlightAware
09:19AM 34.8000 29.5260 117° Southeast 521 600 37,000  Level FlightAware
09:19AM 34.7570 29.6290 117° Southeast 521 600 37,000  Level FlightAware
09:20AM 34.7070 29.7480 117° Southeast 520 598 37,000  Level FlightAware
09:21AM 34.6670 29.8420 117° Southeast 524 603 37,000  Level FlightAware
09:21AM 34.6120 29.9730 117° Southeast 523 602 37,000  Level FlightAware
09:22AM 34.5830 30.0400 118° Southeast 520 598 37,000  Level FlightAware
09:23AM 34.5390 30.1320 120° Southeast 522 601 37,000  Level FlightAware
09:23AM 34.4800 30.2570 120° Southeast 522 601 37,000  Level FlightAware
09:24AM 34.4310 30.3590 120° Southeast 521 600 37,000  Level FlightAware
09:25AM 34.3820 30.4620 120° Southeast 521 600 37,000  Level FlightAware
09:25AM 34.3260 30.5780 120° Southeast 520 598 37,000  Level FlightAware
09:26AM 34.2790 30.6770 120° Southeast 520 598 37,000 -720 Level FlightAware
09:27AM 34.2100 30.8190 120° Southeast 519 597 35,900 -1,260 Descending FlightAware
09:28AM 34.1620 30.9190 120° Southeast 519 597 35,000 -660 Descending FlightAware
09:28AM 34.1090 31.0290 120° Southeast 517 595 35,000 -120 Level FlightAware
09:29AM 34.0590 31.1310 121° Southeast 517 595 34,900 -900 Descending FlightAware
09:30AM 34.0050 31.2420 120° Southeast 517 595 33,800 -1,380 Descending FlightAware
09:31AM 33.9550 31.3440 121° Southeast 521 600 33,000 -600 Descending FlightAware
09:31AM 33.9070 31.4420 121° Southeast 520 598 33,000  Level FlightAware
09:32AM 33.8550 31.5480 121° Southeast 520 598 33,000  Level FlightAware
09:33AM 33.7980 31.6620 121° Southeast 522 601 33,000  Level FlightAware
09:33AM 33.7490 31.7620 120° Southeast 523 602 33,000  Level FlightAware
09:34AM 33.6920 31.8770 121° Southeast 523 602 33,000  Level FlightAware
09:35AM 33.6440 31.9730 121° Southeast 523 602 33,000  Level FlightAware
09:35AM 33.5920 32.0770 121° Southeast 522 601 33,000  Level FlightAware
09:36AM 33.5420 32.1780 121° Southeast 526 605 33,000  Level FlightAware
09:37AM 33.4850 32.2890 122° Southeast 525 604 33,000  Level FlightAware
09:38AM 33.4310 32.3970 121° Southeast 525 604 33,000 -180 Level FlightAware
09:38AM 33.3810 32.4950 121° Southeast 511 588 32,800 -540 Descending FlightAware
09:39AM 33.3260 32.6040 121° Southeast 497 572 32,300 -780 Descending FlightAware
09:40AM 33.2800 32.6930 122° Southeast 481 554 31,700 -1,020 Descending FlightAware
09:40AM 33.2240 32.8030 121° Southeast 475 547 30,900 -1,080 Descending FlightAware
09:41AM 33.1800 32.8880 122° Southeast 470 541 30,200 -1,140 Descending FlightAware
09:42AM 33.0850 33.0740 121° Southeast 459 528 28,600 -1,200 Descending FlightAware
09:43AM 33.0380 33.1640 122° Southeast 455 524 27,800 -1,140 Descending FlightAware
09:44AM 32.9900 33.2580 121° Southeast 451 519 27,000 -1,140 Descending FlightAware
09:45AM 32.9490 33.3350 122° Southeast 447 514 26,300 -1,080 Descending FlightAware
09:45AM 32.9000 33.4310 121° Southeast 436 502 25,500 -1,680 Descending FlightAware
09:46AM 32.8570 33.5130 122° Southeast 428 493 23,900 -2,340 Descending FlightAware
09:47AM 32.8170 33.5890 122° Southeast 422 486 22,500 -2,220 Descending FlightAware
09:47AM 32.7700 33.6800 122° Southeast 414 476 20,800 -2,280 Descending FlightAware
09:48AM 32.7260 33.7620 123° Southeast 405 466 19,200 -2,220 Descending FlightAware
09:49AM 32.6910 33.8300 121° Southeast 399 459 17,900 -2,100 Descending FlightAware
09:49AM 32.6430 33.9210 122° Southeast 391 450 16,200 -2,100 Descending FlightAware
09:50AM 32.6090 33.9860 122° Southeast 386 444 14,900 -2,100 Descending FlightAware
09:51AM 32.5640 34.0700 122° Southeast 380 437 13,300 -2,040 Descending FlightAware
09:52AM 32.4830 34.2040 126° Southeast 365 420 10,600 -1,320 Descending FlightAware
09:53AM 32.4340 34.2610 136° Southeast 365 420 10,500 -120 Descending FlightAware
09:54AM 32.3980 34.3040 135° Southeast 365 420 10,500 -1,080 Level FlightAware
09:54AM 32.3680 34.3380 136° Southeast 9,500 -1,680 Descending FlightAware
09:55AM 32.3410 34.3700 135° Southeast 289 333 8,900 -1,260 Descending FlightAware
09:55AM 32.3170 34.3980 135° Southeast 286 329 8,400 -960 Descending FlightAware
09:56AM 32.2630 34.4610 135° Southeast 283 326 7,600 -1,140 Descending FlightAware
09:57AM 32.2150 34.5490 123° Southeast 275 316 6,000 -1,380 Descending FlightAware
09:57AM 32.2030 34.5710 123° Southeast 270 311 5,800 -1,080 Descending FlightAware
09:58AM 32.1830 34.6110 121° Southeast 263 303 5,200 -780 Descending FlightAware
09:58AM 32.1670 34.6420 121° Southeast 275 316 5,100 -180 Descending FlightAware
09:59AM 32.1510 34.6730 121° Southeast 276 318 5,100  Level FlightAware
09:59AM 32.1400 34.6930 123° Southeast 276 318 5,100 120 Level FlightAware
10:00AM 32.1180 34.7320 124° Southeast 277 319 5,200 60 Climbing FlightAware
10:00AM 32.0990 34.7660 123° Southeast 276 318 5,200 -240 Level FlightAware
10:00AM 32.0740 34.7980 133° Southeast 249 287 5,000 -420 Descending FlightAware
10:01AM 32.0520 34.8230 136° Southeast 244 281 4,800 -360 Descending FlightAware
10:01AM 32.0350 34.8410 138° Southeast 240 276 4,700 -1,080 Descending FlightAware
10:02AM 32.0080 34.8720 136° Southeast 242 278 3,800 -1,800 Descending FlightAware
10:02AM 32.0020 34.8850 119° Southeast 243 280 3,500 -1,500 Descending FlightAware
10:02AM 32.0050 34.9240 85° East 221 254 2,800 -1,440 Descending FlightAware
10:05AM 32.0095 34.8769 125° Southeast  Level Estimated
10:06AM 32.0095 34.8769 125° Southeast  Level Estimated